createdAt,value
2018-06-05T00:00:33.133Z,17.53
2018-06-05T00:01:33.069Z,17.54
2018-06-05T00:03:26.293Z,17.57
2018-06-05T00:04:26.201Z,17.53
2018-06-05T00:06:19.023Z,17.50
2018-06-05T00:07:18.917Z,17.53
2018-06-05T00:09:11.679Z,17.46
2018-06-05T00:10:11.571Z,17.37
2018-06-05T00:12:04.462Z,17.35
2018-06-05T00:13:04.320Z,17.35
2018-06-05T00:14:57.157Z,17.28
2018-06-05T00:15:57.067Z,17.32
2018-06-05T00:17:49.832Z,17.12
2018-06-05T00:18:49.742Z,17.13
2018-06-05T00:20:43.150Z,17.13
2018-06-05T00:21:42.877Z,17.07
2018-06-05T00:23:35.710Z,17.09
2018-06-05T00:24:35.622Z,17.17
2018-06-05T00:26:28.406Z,17.24
2018-06-05T00:27:28.305Z,17.31
2018-06-05T00:29:21.631Z,17.38
2018-06-05T00:30:21.537Z,17.30
2018-06-05T00:32:14.306Z,17.30
2018-06-05T00:33:14.205Z,17.12
2018-06-05T00:35:07.025Z,17.25
2018-06-05T00:36:06.929Z,17.07
2018-06-05T00:37:59.692Z,17.10
2018-06-05T00:38:59.580Z,17.22
2018-06-05T00:40:52.443Z,17.12
2018-06-05T00:41:52.340Z,17.07
2018-06-05T00:43:45.095Z,17.09
2018-06-05T00:44:44.997Z,17.04
2018-06-05T00:46:37.862Z,17.17
2018-06-05T00:47:37.743Z,17.16
2018-06-05T00:49:31.015Z,17.13
2018-06-05T00:50:30.912Z,17.09
2018-06-05T00:52:23.760Z,16.97
2018-06-05T00:53:23.638Z,16.98
2018-06-05T00:55:16.408Z,17.04
2018-06-05T00:56:16.279Z,16.94
2018-06-05T00:58:09.155Z,17.06
2018-06-05T00:59:09.032Z,16.98
2018-06-05T01:01:01.809Z,16.98
2018-06-05T01:02:01.688Z,16.99
2018-06-05T01:03:54.546Z,17.01
2018-06-05T01:04:54.430Z,16.97
2018-06-05T01:06:47.312Z,17.04
2018-06-05T01:07:47.198Z,17.02
2018-06-05T01:09:40.947Z,17.02
2018-06-05T01:10:40.853Z,17.06
2018-06-05T01:12:34.126Z,16.94
2018-06-05T01:13:34.023Z,16.98
2018-06-05T01:15:26.883Z,17.04
2018-06-05T01:16:26.662Z,16.91
2018-06-05T01:18:19.541Z,16.90
2018-06-05T01:19:19.431Z,16.91
2018-06-05T01:21:12.677Z,16.84
2018-06-05T01:22:12.561Z,16.73
2018-06-05T01:24:05.448Z,16.80
2018-06-05T01:25:05.303Z,16.74
2018-06-05T01:26:58.156Z,16.84
2018-06-05T01:27:58.065Z,16.77
2018-06-05T01:29:50.927Z,16.91
2018-06-05T01:30:50.806Z,16.83
2018-06-05T01:32:43.553Z,16.91
2018-06-05T01:33:43.468Z,16.90
2018-06-05T01:35:36.833Z,16.87
2018-06-05T01:36:36.298Z,16.95
2018-06-05T01:38:28.990Z,17.02
2018-06-05T01:39:28.937Z,16.95
2018-06-05T01:41:21.765Z,16.95
2018-06-05T01:42:21.603Z,16.91
2018-06-05T01:44:14.972Z,16.95
2018-06-05T01:45:14.257Z,16.97
2018-06-05T01:47:07.137Z,16.94
2018-06-05T01:48:07.027Z,16.99
2018-06-05T01:49:59.837Z,16.97
2018-06-05T01:50:59.742Z,16.92
2018-06-05T01:52:52.509Z,16.91
2018-06-05T01:53:52.401Z,16.87
2018-06-05T01:55:45.142Z,17.01
2018-06-05T01:56:45.045Z,16.95
2018-06-05T01:58:37.895Z,16.90
2018-06-05T01:59:37.791Z,16.98
2018-06-05T02:01:30.535Z,16.91
2018-06-05T02:02:30.444Z,16.90
2018-06-05T02:04:23.305Z,16.92
2018-06-05T02:05:23.204Z,16.98
2018-06-05T02:07:15.972Z,16.91
2018-06-05T02:08:15.855Z,16.92
2018-06-05T02:10:08.705Z,16.92
2018-06-05T02:11:08.586Z,16.91
2018-06-05T02:13:01.343Z,16.87
2018-06-05T02:14:01.238Z,16.84
2018-06-05T02:15:54.079Z,16.73
2018-06-05T02:16:54.003Z,16.80
2018-06-05T02:18:46.837Z,16.79
2018-06-05T02:19:46.738Z,16.72
2018-06-05T02:21:39.477Z,16.72
2018-06-05T02:22:39.390Z,16.62
2018-06-05T02:24:32.249Z,16.59
2018-06-05T02:25:32.127Z,16.67
2018-06-05T02:27:24.998Z,16.57
2018-06-05T02:28:24.901Z,16.55
2018-06-05T02:30:17.745Z,16.47
2018-06-05T02:31:17.657Z,16.39
2018-06-05T02:33:10.375Z,16.42
2018-06-05T02:34:10.287Z,16.44
2018-06-05T02:36:03.142Z,16.44
2018-06-05T02:37:03.058Z,16.40
2018-06-05T02:38:55.792Z,16.40
2018-06-05T02:39:55.688Z,16.33
2018-06-05T02:41:48.539Z,16.37
2018-06-05T02:42:48.426Z,16.36
2018-06-05T02:44:41.795Z,16.34
2018-06-05T02:45:41.617Z,16.32
2018-06-05T02:47:34.344Z,16.39
2018-06-05T02:48:34.236Z,16.40
2018-06-05T02:50:27.065Z,16.33
2018-06-05T02:51:26.975Z,16.26
2018-06-05T02:53:19.744Z,16.26
2018-06-05T02:54:19.639Z,16.26
2018-06-05T02:56:12.408Z,16.32
2018-06-05T02:57:12.336Z,16.25
2018-06-05T02:59:05.037Z,16.10
2018-06-05T03:00:04.941Z,16.17
2018-06-05T03:01:57.780Z,16.09
2018-06-05T03:02:57.688Z,16.14
2018-06-05T03:04:50.432Z,16.16
2018-06-05T03:05:50.336Z,16.24
2018-06-05T03:07:43.187Z,16.14
2018-06-05T03:08:43.080Z,16.08
2018-06-05T03:10:35.832Z,16.06
2018-06-05T03:11:35.709Z,16.24
2018-06-05T03:13:28.992Z,16.26
2018-06-05T03:14:28.889Z,16.17
2018-06-05T03:16:21.744Z,16.14
2018-06-05T03:17:21.629Z,16.16
2018-06-05T03:19:14.379Z,16.13
2018-06-05T03:20:14.271Z,16.10
2018-06-05T03:22:07.111Z,16.13
2018-06-05T03:23:07.015Z,16.08
2018-06-05T03:24:59.789Z,15.98
2018-06-05T03:25:59.677Z,15.90
2018-06-05T03:27:52.951Z,15.90
2018-06-05T03:28:52.837Z,16.03
2018-06-05T03:30:45.588Z,16.02
2018-06-05T03:31:45.503Z,16.00
2018-06-05T03:33:38.223Z,15.90
2018-06-05T03:34:38.129Z,15.98
2018-06-05T03:36:30.887Z,15.84
2018-06-05T03:37:30.771Z,15.81
2018-06-05T03:39:23.512Z,15.68
2018-06-05T03:40:23.417Z,15.63
2018-06-05T03:42:16.175Z,15.60
2018-06-05T03:43:16.077Z,15.51
2018-06-05T03:45:08.922Z,15.50
2018-06-05T03:46:08.714Z,15.54
2018-06-05T03:48:01.593Z,15.51
2018-06-05T03:49:01.459Z,15.52
2018-06-05T03:50:54.779Z,15.56
2018-06-05T03:51:54.632Z,15.62
2018-06-05T03:53:47.454Z,15.62
2018-06-05T03:54:47.362Z,15.52
2018-06-05T03:56:40.143Z,15.51
2018-06-05T03:57:40.032Z,15.51
2018-06-05T03:59:32.886Z,15.60
2018-06-05T04:00:32.771Z,15.51
2018-06-05T04:02:25.619Z,15.56
2018-06-05T04:03:25.513Z,15.52
2018-06-05T04:05:18.368Z,15.54
2018-06-05T04:06:18.190Z,15.56
2018-06-05T04:08:10.949Z,15.43
2018-06-05T04:09:10.811Z,15.38
2018-06-05T04:11:05.172Z,15.43
2018-06-05T04:12:04.078Z,15.43
2018-06-05T04:13:56.959Z,15.41
2018-06-05T04:14:56.721Z,15.41
2018-06-05T04:16:51.227Z,15.38
2018-06-05T04:17:49.470Z,15.44
2018-06-05T04:19:42.310Z,15.44
2018-06-05T04:20:42.215Z,15.30
2018-06-05T04:22:34.991Z,15.27
2018-06-05T04:23:34.896Z,15.30
2018-06-05T04:25:27.629Z,15.35
2018-06-05T04:26:27.515Z,15.27
2018-06-05T04:28:20.401Z,15.40
2018-06-05T04:29:20.274Z,15.40
2018-06-05T04:31:13.002Z,15.38
2018-06-05T04:32:12.920Z,15.36
2018-06-05T04:34:06.217Z,15.41
2018-06-05T04:35:06.070Z,15.41
2018-06-05T04:36:59.314Z,15.43
2018-06-05T04:37:59.230Z,15.43
2018-06-05T04:39:52.092Z,15.40
2018-06-05T04:40:51.975Z,15.43
2018-06-05T04:42:44.736Z,15.44
2018-06-05T04:43:44.622Z,15.40
2018-06-05T04:45:37.463Z,15.40
2018-06-05T04:46:37.365Z,15.44
2018-06-05T04:48:30.130Z,15.45
2018-06-05T04:49:30.037Z,15.59
2018-06-05T04:51:22.869Z,15.54
2018-06-05T04:52:22.672Z,15.50
2018-06-05T04:54:15.942Z,15.54
2018-06-05T04:55:15.826Z,15.44
2018-06-05T04:57:09.181Z,15.44
2018-06-05T04:58:09.103Z,15.43
2018-06-05T05:00:01.841Z,15.43
2018-06-05T05:01:01.738Z,15.54
2018-06-05T05:02:54.489Z,15.56
2018-06-05T05:03:54.373Z,15.51
2018-06-05T05:05:47.250Z,15.54
2018-06-05T05:06:47.133Z,15.66
2018-06-05T05:08:39.987Z,15.65
2018-06-05T05:09:39.899Z,15.63
2018-06-05T05:11:32.744Z,15.65
2018-06-05T05:12:32.632Z,15.58
2018-06-05T05:14:25.401Z,15.54
2018-06-05T05:15:25.282Z,15.48
2018-06-05T05:17:18.128Z,15.50
2018-06-05T05:18:18.049Z,15.50
2018-06-05T05:20:10.894Z,15.65
2018-06-05T05:21:10.672Z,15.68
2018-06-05T05:23:03.422Z,15.76
2018-06-05T05:24:03.323Z,15.77
2018-06-05T05:25:56.197Z,15.80
2018-06-05T05:26:56.078Z,15.72
2018-06-05T05:28:48.916Z,15.63
2018-06-05T05:29:48.820Z,15.54
2018-06-05T05:31:42.190Z,15.50
2018-06-05T05:32:41.982Z,15.47
2018-06-05T05:34:34.825Z,15.52
2018-06-05T05:35:34.727Z,15.54
2018-06-05T05:37:27.571Z,15.68
2018-06-05T05:38:27.481Z,15.66
2018-06-05T05:40:20.348Z,15.56
2018-06-05T05:41:20.247Z,15.66
2018-06-05T05:43:13.075Z,15.62
2018-06-05T05:44:12.989Z,15.65
2018-06-05T05:46:05.751Z,15.76
2018-06-05T05:47:05.708Z,15.69
2018-06-05T05:48:58.473Z,15.81
2018-06-05T05:49:58.275Z,15.84
2018-06-05T05:51:51.047Z,15.88
2018-06-05T05:52:50.917Z,15.84
2018-06-05T05:54:43.846Z,15.90
2018-06-05T05:55:43.688Z,15.84
2018-06-05T05:57:36.545Z,15.87
2018-06-05T05:58:36.419Z,15.80
2018-06-05T06:00:29.299Z,15.78
2018-06-05T06:01:29.171Z,15.87
2018-06-05T06:03:22.008Z,15.87
2018-06-05T06:04:21.921Z,15.84
2018-06-05T06:06:14.783Z,15.81
2018-06-05T06:07:14.699Z,15.80
2018-06-05T06:09:07.405Z,15.81
2018-06-05T06:10:07.314Z,15.81
2018-06-05T06:12:00.191Z,15.85
2018-06-05T06:13:00.088Z,15.84
2018-06-05T06:14:52.829Z,15.84
2018-06-05T06:15:52.711Z,15.85
2018-06-05T06:17:45.476Z,15.77
2018-06-05T06:18:45.361Z,15.83
2018-06-05T06:20:38.096Z,15.80
2018-06-05T06:21:38.008Z,15.81
2018-06-05T06:23:30.866Z,15.76
2018-06-05T06:24:30.698Z,15.87
2018-06-05T06:26:23.433Z,15.88
2018-06-05T06:27:23.308Z,16.00
2018-06-05T06:29:16.147Z,15.99
2018-06-05T06:30:16.046Z,15.96
2018-06-05T06:32:08.814Z,15.90
2018-06-05T06:33:08.717Z,15.95
2018-06-05T06:35:01.465Z,15.69
2018-06-05T06:36:01.344Z,15.65
2018-06-05T06:37:54.101Z,15.63
2018-06-05T06:38:53.992Z,15.60
2018-06-05T06:40:46.827Z,15.63
2018-06-05T06:41:46.741Z,15.62
2018-06-05T06:43:39.509Z,15.70
2018-06-05T06:44:39.384Z,15.70
2018-06-05T06:46:32.131Z,15.63
2018-06-05T06:47:32.038Z,15.70
2018-06-05T06:49:24.898Z,15.76
2018-06-05T06:50:24.788Z,15.73
2018-06-05T06:52:17.549Z,15.65
2018-06-05T06:53:17.431Z,15.68
2018-06-05T06:55:10.272Z,15.60
2018-06-05T06:56:10.177Z,15.63
2018-06-05T06:58:02.940Z,15.66
2018-06-05T06:59:02.848Z,15.65
2018-06-05T07:00:55.686Z,15.60
2018-06-05T07:01:55.474Z,15.63
2018-06-05T07:03:48.247Z,15.60
2018-06-05T07:04:48.120Z,15.66
2018-06-05T07:06:40.966Z,15.70
2018-06-05T07:07:40.874Z,15.85
2018-06-05T07:09:33.650Z,15.78
2018-06-05T07:10:33.519Z,15.80
2018-06-05T07:12:26.256Z,15.87
2018-06-05T07:13:26.161Z,15.96
2018-06-05T07:15:18.956Z,15.90
2018-06-05T07:16:18.835Z,15.95
2018-06-05T07:18:11.603Z,15.88
2018-06-05T07:19:11.460Z,15.88
2018-06-05T07:21:04.340Z,15.88
2018-06-05T07:22:04.122Z,15.93
2018-06-05T07:23:57.004Z,15.88
2018-06-05T07:24:56.872Z,15.95
2018-06-05T07:26:49.632Z,16.03
2018-06-05T07:27:49.503Z,16.03
2018-06-05T07:29:42.248Z,15.99
2018-06-05T07:30:42.157Z,15.91
2018-06-05T07:32:35.017Z,15.90
2018-06-05T07:33:34.898Z,15.93
2018-06-05T07:35:27.647Z,15.99
2018-06-05T07:36:27.543Z,16.10
2018-06-05T07:38:20.331Z,16.10
2018-06-05T07:39:20.208Z,16.14
2018-06-05T07:41:13.039Z,16.26
2018-06-05T07:42:12.952Z,16.34
2018-06-05T07:44:05.825Z,16.09
2018-06-05T07:45:05.696Z,16.14
2018-06-05T07:46:58.461Z,16.22
2018-06-05T07:47:58.338Z,16.16
2018-06-05T07:49:51.102Z,16.10
2018-06-05T07:50:50.989Z,15.96
2018-06-05T07:52:43.754Z,16.00
2018-06-05T07:53:43.641Z,15.91
2018-06-05T07:55:36.546Z,16.09
2018-06-05T07:56:36.283Z,16.13
2018-06-05T07:58:29.122Z,16.18
2018-06-05T07:59:29.033Z,16.37
2018-06-05T08:01:21.805Z,16.36
2018-06-05T08:02:21.684Z,16.39
2018-06-05T08:04:14.447Z,16.44
2018-06-05T08:05:14.337Z,16.39
2018-06-05T08:07:07.220Z,16.40
2018-06-05T08:08:07.080Z,16.36
2018-06-05T08:09:59.931Z,16.37
2018-06-05T08:10:59.731Z,16.34
2018-06-05T08:12:52.602Z,16.33
2018-06-05T08:13:52.474Z,16.43
2018-06-05T08:15:45.318Z,16.37
2018-06-05T08:16:45.226Z,16.42
2018-06-05T08:18:38.001Z,16.51
2018-06-05T08:19:37.887Z,16.49
2018-06-05T08:21:30.716Z,16.42
2018-06-05T08:22:30.625Z,16.40
2018-06-05T08:24:23.561Z,16.36
2018-06-05T08:25:23.273Z,16.32
2018-06-05T08:27:16.129Z,16.40
2018-06-05T08:28:16.017Z,16.44
2018-06-05T08:30:09.309Z,16.58
2018-06-05T08:31:09.178Z,16.67
2018-06-05T08:33:02.017Z,16.69
2018-06-05T08:34:01.934Z,16.82
2018-06-05T08:35:54.696Z,16.90
2018-06-05T08:36:54.580Z,16.92
2018-06-05T08:38:47.417Z,16.73
2018-06-05T08:39:47.321Z,16.76
2018-06-05T08:41:40.099Z,16.73
2018-06-05T08:42:39.969Z,16.88
2018-06-05T08:44:32.817Z,16.88
2018-06-05T08:45:32.722Z,16.97
2018-06-05T08:47:25.585Z,16.94
2018-06-05T08:48:25.495Z,16.95
2018-06-05T08:50:18.227Z,17.01
2018-06-05T08:51:18.117Z,16.98
2018-06-05T08:53:10.992Z,17.12
2018-06-05T08:54:10.876Z,17.04
2018-06-05T08:56:03.721Z,17.09
2018-06-05T08:57:03.633Z,17.12
2018-06-05T08:58:56.509Z,17.07
2018-06-05T08:59:56.385Z,17.17
2018-06-05T09:01:49.269Z,17.10
2018-06-05T09:02:49.118Z,17.14
2018-06-05T09:04:41.910Z,17.16
2018-06-05T09:05:41.772Z,17.13
2018-06-05T09:07:34.635Z,17.02
2018-06-05T09:08:34.526Z,16.91
2018-06-05T09:10:27.371Z,16.73
2018-06-05T09:11:27.262Z,16.87
2018-06-05T09:13:19.997Z,17.04
2018-06-05T09:14:19.919Z,16.98
2018-06-05T09:16:13.694Z,17.10
2018-06-05T09:17:13.583Z,17.20
2018-06-05T09:19:06.433Z,17.32
2018-06-05T09:20:06.329Z,17.35
2018-06-05T09:21:59.210Z,17.20
2018-06-05T09:22:59.092Z,17.13
2018-06-05T09:24:51.835Z,17.28
2018-06-05T09:25:51.733Z,17.10
2018-06-05T09:27:44.592Z,16.99
2018-06-05T09:28:44.469Z,17.10
2018-06-05T09:30:37.427Z,17.06
2018-06-05T09:31:37.325Z,17.06
2018-06-05T09:33:30.204Z,17.22
2018-06-05T09:34:30.123Z,17.25
2018-06-05T09:36:22.929Z,17.37
2018-06-05T09:37:22.847Z,17.46
2018-06-05T09:39:15.709Z,17.72
2018-06-05T09:40:15.580Z,17.96
2018-06-05T09:42:08.441Z,17.99
2018-06-05T09:43:08.341Z,17.99
2018-06-05T09:45:01.197Z,17.83
2018-06-05T09:46:01.082Z,17.73
2018-06-05T09:47:53.921Z,17.96
2018-06-05T09:48:53.849Z,17.97
2018-06-05T09:50:46.710Z,17.97
2018-06-05T09:51:46.584Z,17.99
2018-06-05T09:53:39.419Z,18.18
2018-06-05T09:54:39.322Z,18.27
2018-06-05T09:56:32.190Z,17.91
2018-06-05T09:57:32.077Z,17.99
2018-06-05T09:59:24.935Z,18.21
2018-06-05T10:00:24.822Z,18.33
2018-06-05T10:02:17.697Z,18.30
2018-06-05T10:03:17.570Z,18.24
2018-06-05T10:05:11.930Z,18.24
2018-06-05T10:06:10.316Z,18.39
2018-06-05T10:08:03.221Z,18.64
2018-06-05T10:09:03.074Z,18.83
2018-06-05T10:10:55.922Z,19.01
2018-06-05T10:11:55.839Z,19.00
2018-06-05T10:13:48.687Z,19.12
2018-06-05T10:14:48.590Z,19.22
2018-06-05T10:16:41.531Z,19.50
2018-06-05T10:17:41.450Z,19.63
2018-06-05T10:19:34.269Z,19.68
2018-06-05T10:20:34.177Z,19.57
2018-06-05T10:22:27.527Z,19.05
2018-06-05T10:23:27.435Z,19.12
2018-06-05T10:25:20.310Z,19.56
2018-06-05T10:26:20.181Z,19.47
2018-06-05T10:28:13.568Z,19.50
2018-06-05T10:29:13.453Z,19.45
2018-06-05T10:31:06.306Z,19.45
2018-06-05T10:32:06.271Z,19.57
2018-06-05T10:33:59.563Z,20.04
2018-06-05T10:34:59.485Z,20.15
2018-06-05T10:36:52.310Z,20.32
2018-06-05T10:37:52.213Z,20.44
2018-06-05T10:39:45.070Z,20.46
2018-06-05T10:40:44.955Z,20.32
2018-06-05T10:42:38.017Z,19.92
2018-06-05T10:43:37.910Z,19.94
2018-06-05T10:45:30.770Z,19.93
2018-06-05T10:46:30.671Z,20.11
2018-06-05T10:48:23.504Z,20.17
2018-06-05T10:49:23.430Z,20.11
2018-06-05T10:51:16.279Z,19.54
2018-06-05T10:52:16.166Z,19.23
2018-06-05T10:54:09.045Z,19.53
2018-06-05T10:55:08.912Z,19.53
2018-06-05T10:57:01.767Z,19.62
2018-06-05T10:58:01.658Z,19.68
2018-06-05T10:59:54.522Z,19.92
2018-06-05T11:00:54.430Z,20.05
2018-06-05T11:02:47.282Z,20.08
2018-06-05T11:03:47.156Z,20.22
2018-06-05T11:05:40.049Z,20.30
2018-06-05T11:06:39.908Z,20.41
2018-06-05T11:08:33.696Z,20.58
2018-06-05T11:09:32.674Z,20.85
2018-06-05T11:11:25.534Z,20.92
2018-06-05T11:12:25.422Z,20.75
2018-06-05T11:14:18.247Z,20.89
2018-06-05T11:15:18.153Z,20.86
2018-06-05T11:17:11.027Z,20.42
2018-06-05T11:18:10.919Z,20.36
2018-06-05T11:20:03.767Z,20.46
2018-06-05T11:21:03.663Z,20.61
2018-06-05T11:22:56.512Z,21.00
2018-06-05T11:23:56.404Z,21.08
2018-06-05T11:25:49.777Z,21.59
2018-06-05T11:26:49.671Z,21.41
2018-06-05T11:28:43.032Z,21.32
2018-06-05T11:29:42.927Z,21.32
2018-06-05T11:31:35.807Z,20.89
2018-06-05T11:32:35.682Z,20.90
2018-06-05T11:34:28.535Z,21.20
2018-06-05T11:35:28.428Z,21.34
2018-06-05T11:37:21.310Z,21.48
2018-06-05T11:38:21.174Z,21.35
2018-06-05T11:40:14.169Z,21.11
2018-06-05T11:41:14.036Z,21.14
2018-06-05T11:43:08.400Z,21.07
2018-06-05T11:44:08.332Z,21.05
2018-06-05T11:46:01.193Z,21.10
2018-06-05T11:47:01.072Z,21.25
2018-06-05T11:48:53.906Z,21.63
2018-06-05T11:49:53.826Z,21.58
2018-06-05T11:51:46.674Z,22.01
2018-06-05T11:52:46.573Z,22.11
2018-06-05T11:54:39.402Z,22.27
2018-06-05T11:55:39.313Z,22.15
2018-06-05T11:57:32.319Z,22.11
2018-06-05T11:58:32.175Z,22.27
2018-06-05T12:00:25.020Z,22.09
2018-06-05T12:01:24.911Z,21.93
2018-06-05T12:03:18.692Z,21.58
2018-06-05T12:04:18.621Z,21.47
2018-06-05T12:06:11.469Z,21.38
2018-06-05T12:07:11.335Z,21.58
2018-06-05T12:09:04.278Z,21.58
2018-06-05T12:10:04.217Z,21.73
2018-06-05T12:11:57.034Z,22.01
2018-06-05T12:12:56.938Z,21.98
2018-06-05T12:14:49.795Z,22.09
2018-06-05T12:15:49.683Z,22.43
2018-06-05T12:17:42.559Z,22.98
2018-06-05T12:18:42.447Z,23.07
2018-06-05T12:20:35.290Z,23.01
2018-06-05T12:21:35.202Z,22.73
2018-06-05T12:23:28.026Z,22.48
2018-06-05T12:24:27.934Z,22.28
2018-06-05T12:26:20.799Z,22.07
2018-06-05T12:27:20.685Z,22.28
2018-06-05T12:29:13.526Z,22.30
2018-06-05T12:30:13.459Z,22.31
2018-06-05T12:32:06.360Z,22.15
2018-06-05T12:33:06.260Z,22.31
2018-06-05T12:34:59.038Z,22.64
2018-06-05T12:35:58.957Z,22.58
2018-06-05T12:37:51.790Z,22.99
2018-06-05T12:38:51.681Z,22.89
2018-06-05T12:40:44.553Z,23.07
2018-06-05T12:41:44.477Z,23.08
2018-06-05T12:43:37.273Z,23.25
2018-06-05T12:44:37.184Z,23.06
2018-06-05T12:46:30.041Z,22.68
2018-06-05T12:47:29.946Z,22.80
2018-06-05T12:49:22.776Z,23.04
2018-06-05T12:50:22.717Z,23.03
2018-06-05T12:52:15.569Z,23.01
2018-06-05T12:53:15.434Z,22.88
2018-06-05T12:55:08.288Z,23.13
2018-06-05T12:56:08.186Z,23.37
2018-06-05T12:58:01.577Z,23.46
2018-06-05T12:59:01.469Z,23.52
2018-06-05T13:00:54.813Z,23.60
2018-06-05T13:01:54.706Z,23.86
2018-06-05T13:03:47.671Z,24.23
2018-06-05T13:04:47.558Z,24.34
2018-06-05T13:06:40.420Z,24.38
2018-06-05T13:07:40.303Z,24.48
2018-06-05T13:09:33.168Z,24.58
2018-06-05T13:10:33.093Z,24.56
2018-06-05T13:12:25.927Z,24.78
2018-06-05T13:13:25.828Z,24.68
2018-06-05T13:15:18.643Z,24.34
2018-06-05T13:16:18.557Z,23.96
2018-06-05T13:18:11.929Z,23.70
2018-06-05T13:19:11.817Z,23.69
2018-06-05T13:21:04.777Z,23.26
2018-06-05T13:22:04.719Z,23.26
2018-06-05T13:23:57.615Z,23.73
2018-06-05T13:24:57.536Z,23.86
2018-06-05T13:26:50.504Z,24.29
2018-06-05T13:27:50.380Z,24.22
2018-06-05T13:29:43.273Z,23.71
2018-06-05T13:30:43.123Z,23.89
2018-06-05T13:32:35.996Z,24.19
2018-06-05T13:33:35.914Z,24.25
2018-06-05T13:35:29.228Z,24.38
2018-06-05T13:36:29.158Z,24.70
2018-06-05T13:38:22.006Z,24.82
2018-06-05T13:39:21.891Z,24.78
2018-06-05T13:41:14.844Z,24.56
2018-06-05T13:42:14.751Z,24.86
2018-06-05T13:44:07.697Z,24.93
2018-06-05T13:45:07.586Z,25.04
2018-06-05T13:47:00.764Z,25.34
2018-06-05T13:48:00.646Z,24.86
2018-06-05T13:49:53.622Z,24.47
2018-06-05T13:50:53.527Z,24.78
2018-06-05T13:52:46.464Z,25.28
2018-06-05T13:53:46.350Z,25.23
2018-06-05T13:55:39.290Z,25.61
2018-06-05T13:56:39.211Z,25.61
2018-06-05T13:58:32.161Z,25.26
2018-06-05T13:59:32.061Z,24.96
2018-06-05T14:01:25.011Z,25.12
2018-06-05T14:02:24.901Z,24.99
2018-06-05T14:04:17.872Z,24.82
2018-06-05T14:05:17.785Z,25.09
2018-06-05T14:07:10.730Z,24.97
2018-06-05T14:08:10.624Z,25.01
2018-06-05T14:10:03.555Z,25.26
2018-06-05T14:11:03.453Z,25.11
2018-06-05T14:12:56.441Z,24.34
2018-06-05T14:13:56.322Z,24.60
2018-06-05T14:15:49.278Z,24.31
2018-06-05T14:16:49.173Z,24.26
2018-06-05T14:18:42.122Z,23.96
2018-06-05T14:19:42.033Z,24.00
2018-06-05T14:21:34.983Z,24.40
2018-06-05T14:22:34.888Z,24.23
2018-06-05T14:24:27.826Z,24.28
2018-06-05T14:25:27.731Z,24.00
2018-06-05T14:27:20.707Z,24.04
2018-06-05T14:28:20.587Z,24.23
2018-06-05T14:30:13.539Z,24.38
2018-06-05T14:31:13.435Z,24.31
2018-06-05T14:33:06.432Z,24.38
2018-06-05T14:34:06.321Z,24.26
2018-06-05T14:35:59.220Z,24.75
2018-06-05T14:36:59.152Z,24.93
2018-06-05T14:38:52.655Z,25.53
2018-06-05T14:39:52.488Z,25.90
2018-06-05T14:41:45.467Z,25.68
2018-06-05T14:42:45.368Z,25.48
2018-06-05T14:44:38.320Z,25.12
2018-06-05T14:45:38.240Z,24.89
2018-06-05T14:47:31.175Z,24.84
2018-06-05T14:48:31.059Z,24.68
2018-06-05T14:50:24.286Z,24.65
2018-06-05T14:51:23.903Z,24.52
2018-06-05T14:53:16.872Z,24.97
2018-06-05T14:54:16.765Z,25.19
2018-06-05T14:56:09.702Z,25.38
2018-06-05T14:57:09.604Z,25.86
2018-06-05T14:59:02.573Z,25.74
2018-06-05T15:00:02.475Z,25.89
2018-06-05T15:01:55.458Z,25.85
2018-06-05T15:02:55.331Z,25.89
2018-06-05T15:04:48.264Z,25.75
2018-06-05T15:05:48.162Z,25.55
2018-06-05T15:07:41.122Z,25.74
2018-06-05T15:08:41.014Z,25.96
2018-06-05T15:10:33.955Z,26.26
2018-06-05T15:11:33.875Z,26.01
2018-06-05T15:13:26.826Z,25.73
2018-06-05T15:14:26.726Z,25.88
2018-06-05T15:16:19.671Z,26.34
2018-06-05T15:17:19.625Z,26.10
2018-06-05T15:19:12.524Z,26.39
2018-06-05T15:20:12.439Z,26.64
2018-06-05T15:22:06.297Z,26.19
2018-06-05T15:23:06.212Z,26.64
2018-06-05T15:24:59.169Z,27.54
2018-06-05T15:25:59.055Z,28.15
2018-06-05T15:27:52.003Z,28.09
2018-06-05T15:28:51.924Z,27.27
2018-06-05T15:30:44.802Z,26.71
2018-06-05T15:31:44.653Z,26.70
2018-06-05T15:33:37.512Z,27.15
2018-06-05T15:34:37.405Z,27.15
2018-06-05T15:36:30.244Z,27.97
2018-06-05T15:37:30.155Z,27.82
2018-06-05T15:39:23.008Z,27.93
2018-06-05T15:40:22.898Z,27.93
2018-06-05T15:42:15.749Z,27.44
2018-06-05T15:43:15.649Z,27.00
2018-06-05T15:45:08.501Z,27.42
2018-06-05T15:46:08.405Z,27.68
2018-06-05T15:48:01.257Z,28.86
2018-06-05T15:49:01.153Z,29.25
2018-06-05T15:50:54.017Z,29.13
2018-06-05T15:51:53.902Z,28.71
2018-06-05T15:53:46.746Z,27.85
2018-06-05T15:54:46.654Z,27.76
2018-06-05T15:56:40.022Z,27.54
2018-06-05T15:57:39.913Z,27.38
2018-06-05T15:59:32.781Z,27.47
2018-06-05T16:00:32.670Z,27.53
2018-06-05T16:02:26.052Z,28.47
2018-06-05T16:03:25.914Z,28.89
2018-06-05T16:05:18.767Z,29.70
2018-06-05T16:06:18.670Z,29.83
2018-06-05T16:08:11.522Z,28.93
2018-06-05T16:09:11.427Z,28.62
2018-06-05T16:11:04.276Z,28.38
2018-06-05T16:12:04.220Z,27.87
2018-06-05T16:13:57.122Z,27.10
2018-06-05T16:14:57.040Z,27.07
2018-06-05T16:16:49.954Z,27.26
2018-06-05T16:17:49.866Z,27.38
2018-06-05T16:19:43.259Z,27.78
2018-06-05T16:20:42.635Z,27.61
2018-06-05T16:22:35.482Z,28.01
2018-06-05T16:23:35.371Z,28.37
2018-06-05T16:25:28.215Z,28.77
2018-06-05T16:26:28.196Z,28.68
2018-06-05T16:28:20.972Z,28.50
2018-06-05T16:29:20.871Z,28.32
2018-06-05T16:31:13.711Z,28.83
2018-06-05T16:32:13.627Z,29.41
2018-06-05T16:34:06.547Z,29.00
2018-06-05T16:35:06.379Z,28.35
2018-06-05T16:36:59.209Z,28.13
2018-06-05T16:37:59.121Z,28.12
2018-06-05T16:39:51.962Z,28.17
2018-06-05T16:40:51.883Z,28.50
2018-06-05T16:42:44.733Z,28.83
2018-06-05T16:43:44.622Z,28.57
2018-06-05T16:45:37.980Z,28.35
2018-06-05T16:46:37.888Z,28.34
2018-06-05T16:48:30.731Z,28.32
2018-06-05T16:49:30.649Z,28.53
2018-06-05T16:51:23.464Z,28.94
2018-06-05T16:52:23.381Z,28.43
2018-06-05T16:54:16.279Z,28.77
2018-06-05T16:55:16.140Z,28.79
2018-06-05T16:57:08.976Z,28.79
2018-06-05T16:58:08.895Z,28.53
2018-06-05T17:00:01.725Z,28.49
2018-06-05T17:01:01.657Z,28.72
2018-06-05T17:02:54.489Z,28.13
2018-06-05T17:03:54.409Z,27.73
2018-06-05T17:05:47.304Z,27.93
2018-06-05T17:06:47.188Z,28.43
2018-06-05T17:08:40.015Z,29.56
2018-06-05T17:09:39.888Z,28.75
2018-06-05T17:11:32.714Z,29.12
2018-06-05T17:12:32.669Z,29.18
2018-06-05T17:14:25.483Z,28.53
2018-06-05T17:15:25.411Z,28.30
2018-06-05T17:17:18.237Z,28.19
2018-06-05T17:18:18.138Z,28.57
2018-06-05T17:20:10.961Z,29.62
2018-06-05T17:21:10.888Z,30.24
2018-06-05T17:23:03.747Z,31.20
2018-06-05T17:24:03.645Z,31.34
2018-06-05T17:25:56.475Z,30.80
2018-06-05T17:26:56.396Z,29.93
2018-06-05T17:28:49.258Z,28.86
2018-06-05T17:29:49.130Z,28.61
2018-06-05T17:31:41.969Z,29.55
2018-06-05T17:32:41.909Z,30.26
2018-06-05T17:34:34.720Z,30.08
2018-06-05T17:35:34.638Z,30.03
2018-06-05T17:37:27.484Z,29.74
2018-06-05T17:38:27.403Z,29.61
2018-06-05T17:40:20.382Z,30.48
2018-06-05T17:41:20.135Z,31.02
2018-06-05T17:43:12.979Z,31.67
2018-06-05T17:44:12.887Z,31.95
2018-06-05T17:46:05.751Z,31.91
2018-06-05T17:47:05.664Z,32.01
2018-06-05T17:48:58.474Z,31.90
2018-06-05T17:49:58.388Z,32.01
2018-06-05T17:51:51.233Z,32.20
2018-06-05T17:52:51.150Z,32.21
2018-06-05T17:54:43.978Z,32.19
2018-06-05T17:55:43.889Z,32.01
2018-06-05T17:57:36.706Z,31.61
2018-06-05T17:58:36.714Z,31.76
2018-06-05T18:00:29.477Z,31.74
2018-06-05T18:01:29.391Z,31.76
2018-06-05T18:03:22.223Z,31.57
2018-06-05T18:04:22.138Z,31.48
2018-06-05T18:06:15.019Z,30.88
2018-06-05T18:07:14.896Z,30.26
2018-06-05T18:09:07.748Z,29.04
2018-06-05T18:10:07.637Z,28.32
2018-06-05T18:12:00.471Z,27.72
2018-06-05T18:13:00.398Z,27.30
2018-06-05T18:14:53.235Z,26.85
2018-06-05T18:15:53.127Z,26.67
2018-06-05T18:17:45.967Z,26.16
2018-06-05T18:18:45.891Z,26.03
2018-06-05T18:20:38.752Z,25.90
2018-06-05T18:21:38.632Z,25.68
2018-06-05T18:23:31.469Z,25.51
2018-06-05T18:24:31.375Z,25.41
2018-06-05T18:26:24.754Z,25.45
2018-06-05T18:27:24.649Z,25.40
2018-06-05T18:29:17.493Z,25.12
2018-06-05T18:30:17.427Z,24.99
2018-06-05T18:32:10.211Z,24.76